Time;durP1;ratioP1;P1;durP2;ratioP2;P2;SDS_P1;SDS_P2;PMS_P1;PMS_P2;Temp;Humidity;BMP_temperature;BMP_pressure;BME280_temperature;BME280_humidity;BME280_pressure;Samples;Min_cycle;Max_cycle;Signal;HPM_P1;HPM_P2
2021/12/26 00:01:04;;;;;;;5.07;2.15;;;-6.40;99.90;;;;;;5064416;28;20044;-81
2021/12/26 00:03:31;;;;;;;5.25;1.48;;;-5.40;99.90;;;;;;5083511;28;20086;-83
2021/12/26 00:06:04;;;;;;;5.40;2.22;;;-6.30;99.90;;;;;;5081026;28;20048;-83
2021/12/26 00:08:30;;;;;;;3.50;1.63;;;-6.30;99.90;;;;;;5085562;28;20729;-83
2021/12/26 00:10:56;;;;;;;5.95;1.27;;;-6.20;99.90;;;;;;5064549;28;20044;-83
2021/12/26 00:13:22;;;;;;;13.35;4.22;;;-7.00;99.90;;;;;;5084561;28;20046;-83
2021/12/26 00:15:48;;;;;;;5.95;1.58;;;-6.10;99.90;;;;;;5082773;28;20052;-82
2021/12/26 00:18:14;;;;;;;4.63;1.95;;;-6.10;99.90;;;;;;5081712;28;20521;-83
2021/12/26 00:20:40;;;;;;;1.95;1.52;;;-6.00;99.90;;;;;;5083448;28;20047;-84
2021/12/26 00:23:07;;;;;;;2.67;1.20;;;-6.00;99.90;;;;;;5082222;28;20039;-84
2021/12/26 00:25:34;;;;;;;6.18;1.67;;;-6.00;99.90;;;;;;5084450;28;20106;-84
2021/12/26 00:28:00;;;;;;;4.38;1.55;;;-6.00;99.90;;;;;;5081610;28;20443;-85
2021/12/26 00:30:26;;;;;;;3.58;1.80;;;-6.00;99.90;;;;;;5084096;28;20079;-85
2021/12/26 00:32:53;;;;;;;4.65;1.58;;;-6.00;99.90;;;;;;5085178;28;20143;-84
2021/12/26 00:35:21;;;;;;;8.55;2.50;;;-6.00;99.90;;;;;;5084815;28;20415;-84
2021/12/26 00:37:47;;;;;;;3.00;1.70;;;-6.00;99.90;;;;;;5066600;28;20083;-82
2021/12/26 00:40:15;;;;;;;3.53;1.70;;;-6.00;99.90;;;;;;5082656;28;20419;-82
2021/12/26 00:42:42;;;;;;;2.92;1.80;;;-6.00;99.90;;;;;;5066972;28;20037;-82
2021/12/26 00:45:08;;;;;;;2.97;1.50;;;-6.00;99.90;;;;;;5082310;28;20123;-83
2021/12/26 00:47:34;;;;;;;4.55;1.30;;;-6.10;99.90;;;;;;5082552;28;20059;-82
2021/12/26 00:50:01;;;;;;;3.25;1.67;;;-6.10;99.90;;;;;;5082311;28;20047;-83
2021/12/26 00:52:27;;;;;;;7.25;1.55;;;-6.10;99.90;;;;;;5081722;28;20047;-82
2021/12/26 00:54:53;;;;;;;2.47;1.50;;;-6.10;99.90;;;;;;5066237;28;20407;-82
2021/12/26 00:57:19;;;;;;;12.65;3.97;;;-6.10;99.90;;;;;;5080831;28;20495;-83
2021/12/26 00:59:45;;;;;;;2.53;1.42;;;-6.10;99.90;;;;;;5083752;28;20058;-83
2021/12/26 01:02:11;;;;;;;5.07;1.83;;;-6.10;99.90;;;;;;5082851;28;20127;-83
2021/12/26 01:04:39;;;;;;;2.00;1.20;;;-6.10;99.90;;;;;;5082648;28;20646;-83
2021/12/26 01:07:12;;;;;;;3.70;1.20;;;-6.10;99.90;;;;;;5065104;28;20472;-83
2021/12/26 01:09:38;;;;;;;2.28;1.30;;;-6.10;99.90;;;;;;5082385;28;20434;-83
2021/12/26 01:12:12;;;;;;;3.60;1.58;;;-6.20;99.90;;;;;;5088104;28;20039;-83
2021/12/26 01:14:46;;;;;;;4.15;2.08;;;-6.20;99.90;;;;;;5051830;28;20047;-83
2021/12/26 01:17:15;;;;;;;2.97;1.38;;;-6.20;99.90;;;;;;5086824;28;20058;-83
2021/12/26 01:19:46;;;;;;;3.72;1.70;;;-6.20;99.90;;;;;;5068930;28;20086;-83
2021/12/26 01:22:14;;;;;;;2.80;1.40;;;-6.20;99.90;;;;;;5070460;28;20390;-84
2021/12/26 01:24:41;;;;;;;5.35;1.60;;;-6.20;99.90;;;;;;5069986;28;20040;-84
2021/12/26 01:27:07;;;;;;;5.75;1.35;;;-6.30;99.90;;;;;;5084697;28;20048;-83
2021/12/26 01:29:34;;;;;;;5.53;1.30;;;-6.20;99.90;;;;;;5089127;28;20071;-84
2021/12/26 01:32:00;;;;;;;2.08;1.23;;;-6.20;99.90;;;;;;5085287;28;20052;-84
2021/12/26 01:34:26;;;;;;;2.92;1.42;;;-6.20;99.90;;;;;;5058185;28;20047;-83
2021/12/26 01:36:52;;;;;;;2.05;1.23;;;-6.20;99.90;;;;;;5096245;28;20046;-84
2021/12/26 01:39:20;;;;;;;1.60;1.15;;;-6.20;99.90;;;;;;5077068;28;20040;-84
2021/12/26 01:41:47;;;;;;;4.07;1.70;;;-6.20;99.90;;;;;;5077841;28;20036;-83
2021/12/26 01:44:14;;;;;;;14.73;5.05;;;-6.10;99.90;;;;;;5094697;28;20048;-84
2021/12/26 01:46:41;;;;;;;6.20;1.75;;;-6.10;99.90;;;;;;5079329;28;20051;-84
2021/12/26 01:49:14;;;;;;;6.18;2.42;;;-6.00;99.90;;;;;;5051578;28;20079;-84
2021/12/26 01:51:42;;;;;;;5.40;2.13;;;-6.00;99.90;;;;;;5086523;28;20147;-85
2021/12/26 01:54:10;;;;;;;3.03;1.70;;;-6.00;99.90;;;;;;5068771;28;20521;-85
2021/12/26 01:56:38;;;;;;;3.47;1.10;;;-6.00;99.90;;;;;;5068405;28;20190;-85
2021/12/26 01:59:06;;;;;;;2.25;1.13;;;-6.10;99.90;;;;;;5069832;28;20442;-85
2021/12/26 02:01:32;;;;;;;3.40;1.52;;;-6.00;99.90;;;;;;5084833;28;20487;-85
2021/12/26 02:03:59;;;;;;;4.20;1.92;;;-6.00;99.90;;;;;;5086039;28;20174;-85
2021/12/26 02:06:25;;;;;;;3.78;1.60;;;-6.00;99.90;;;;;;5066845;28;20048;-85
2021/12/26 02:08:51;;;;;;;6.25;1.88;;;-6.10;99.90;;;;;;5068573;28;20043;-85
2021/12/26 02:11:17;;;;;;;4.78;1.65;;;-6.10;99.90;;;;;;5068003;28;20032;-85
2021/12/26 02:13:43;;;;;;;3.15;1.30;;;-6.10;99.90;;;;;;5050903;28;20307;-85
2021/12/26 02:16:11;;;;;;;3.10;1.10;;;-6.20;99.90;;;;;;5084956;28;20040;-85
2021/12/26 02:18:41;;;;;;;3.08;1.42;;;-6.20;99.90;;;;;;5052927;28;20047;-85
2021/12/26 02:21:19;;;;;;;3.10;1.48;;;-6.20;99.90;;;;;;5074166;28;20048;-86
2021/12/26 02:24:00;;;;;;;6.00;1.50;;;-4.70;99.90;;;;;;5090888;28;20040;-86
2021/12/26 02:29:10;;;;;;;2.70;1.10;;;-6.20;99.90;;;;;;5089947;28;20565;-85
2021/12/26 02:31:36;;;;;;;2.72;1.00;;;-6.20;99.90;;;;;;5052365;28;20043;-86
2021/12/26 02:34:02;;;;;;;3.10;1.20;;;-6.20;99.90;;;;;;5086905;28;20090;-85
2021/12/26 02:36:28;;;;;;;2.90;1.10;;;-6.20;99.90;;;;;;5083059;28;20040;-85
2021/12/26 02:38:54;;;;;;;3.78;1.63;;;-6.30;99.90;;;;;;5084874;28;20048;-86
2021/12/26 02:41:19;;;;;;;3.78;1.38;;;-6.30;99.90;;;;;;5050536;28;20055;-86
2021/12/26 02:43:45;;;;;;;1.70;0.93;;;-6.30;99.90;;;;;;5066825;28;20051;-86
2021/12/26 02:46:11;;;;;;;6.85;1.17;;;-6.30;99.90;;;;;;5051340;28;20182;-86
2021/12/26 02:48:38;;;;;;;1.85;1.00;;;-6.20;99.90;;;;;;5083324;28;20157;-86
2021/12/26 02:51:04;;;;;;;1.52;0.98;;;-6.20;99.90;;;;;;5051618;28;20044;-86
2021/12/26 02:53:30;;;;;;;4.18;1.23;;;-6.20;99.90;;;;;;5066261;28;20047;-86
2021/12/26 02:55:58;;;;;;;1.33;0.90;;;-6.20;99.90;;;;;;5086030;28;20051;-86
2021/12/26 02:58:25;;;;;;;2.28;0.93;;;-6.10;99.90;;;;;;5066460;28;20051;-87
2021/12/26 03:00:55;;;;;;;3.00;1.20;;;-3.90;99.90;;;;;;5083772;28;20452;-86
2021/12/26 03:03:21;;;;;;;6.03;1.02;;;-6.10;99.90;;;;;;5087145;28;20047;-86
2021/12/26 03:06:00;;;;;;;8.93;1.48;;;-6.10;99.90;;;;;;5049972;28;20491;-85
2021/12/26 03:08:25;;;;;;;4.50;1.20;;;-6.10;99.90;;;;;;5085831;28;20052;-86
2021/12/26 03:10:52;;;;;;;2.35;0.90;;;-6.10;99.90;;;;;;5065752;28;20074;-86
2021/12/26 03:13:18;;;;;;;2.05;1.02;;;-6.20;99.90;;;;;;5067635;28;20036;-86
2021/12/26 03:15:44;;;;;;;3.88;1.20;;;-5.20;99.90;;;;;;5066453;28;20412;-86
2021/12/26 03:18:10;;;;;;;1.65;0.80;;;-6.00;99.90;;;;;;5065923;28;20155;-86
2021/12/26 03:20:39;;;;;;;2.20;0.93;;;-5.90;99.90;;;;;;5084975;28;20036;-86
2021/12/26 03:23:07;;;;;;;1.65;0.90;;;-5.90;99.90;;;;;;5065299;28;20086;-86
2021/12/26 03:25:34;;;;;;;2.80;0.98;;;-6.00;99.90;;;;;;5068197;28;20131;-86
2021/12/26 03:28:02;;;;;;;5.43;1.40;;;-7.50;99.90;;;;;;5065382;28;20098;-86
2021/12/26 03:30:29;;;;;;;3.30;1.10;;;-5.90;99.90;;;;;;5066536;28;20044;-86
2021/12/26 03:32:58;;;;;;;1.05;0.90;;;-5.90;99.90;;;;;;5066428;28;20146;-86
2021/12/26 03:35:26;;;;;;;1.58;1.05;;;-5.90;99.90;;;;;;5065455;28;20138;-86
2021/12/26 03:37:55;;;;;;;1.67;1.05;;;-5.90;99.90;;;;;;5067794;28;20114;-85
2021/12/26 03:40:21;;;;;;;2.55;1.27;;;-5.90;99.90;;;;;;5048510;28;20079;-86
2021/12/26 03:42:46;;;;;;;2.83;0.80;;;-7.10;99.90;;;;;;5050884;28;20506;-86
2021/12/26 03:45:12;;;;;;;3.20;1.33;;;-5.90;99.90;;;;;;5048465;28;20047;-86
2021/12/26 03:47:39;;;;;;;2.75;0.93;;;-5.90;99.90;;;;;;5066094;28;20036;-86
2021/12/26 03:50:07;;;;;;;2.47;1.30;;;-5.90;99.90;;;;;;5065990;28;20474;-86
2021/12/26 03:52:33;;;;;;;1.75;1.10;;;-5.90;99.90;;;;;;5081997;28;20040;-86
2021/12/26 03:54:58;;;;;;;1.40;0.77;;;-4.80;99.90;;;;;;5083712;28;20072;-87
2021/12/26 03:57:24;;;;;;;3.95;1.10;;;-6.00;99.90;;;;;;5081016;28;20048;-86
2021/12/26 03:59:50;;;;;;;2.67;1.00;;;-6.00;99.90;;;;;;5066918;28;20480;-86
2021/12/26 04:02:16;;;;;;;5.57;0.90;;;-5.90;99.90;;;;;;5048190;28;20036;-87
2021/12/26 04:04:47;;;;;;;3.92;1.23;;;-6.00;99.90;;;;;;5083377;28;20126;-87
2021/12/26 04:07:13;;;;;;;1.48;0.85;;;-4.20;99.90;;;;;;5050025;28;20044;-87
2021/12/26 04:09:39;;;;;;;5.80;1.55;;;-6.10;99.90;;;;;;5081798;28;20131;-87
2021/12/26 04:12:05;;;;;;;2.13;1.10;;;-6.10;99.90;;;;;;5067699;28;20123;-87
2021/12/26 04:14:31;;;;;;;5.97;0.82;;;-6.10;99.90;;;;;;5085431;28;20039;-86
2021/12/26 04:16:57;;;;;;;6.60;1.48;;;-6.10;99.90;;;;;;5087383;28;20098;-86
2021/12/26 04:19:22;;;;;;;3.20;1.10;;;-6.10;99.90;;;;;;5086417;28;20505;-87
2021/12/26 04:21:48;;;;;;;2.15;0.88;;;-3.90;99.90;;;;;;5070321;28;20105;-87
2021/12/26 04:24:14;;;;;;;2.13;0.98;;;-6.20;99.90;;;;;;5071247;28;20459;-87
2021/12/26 04:26:40;;;;;;;2.55;1.23;;;-6.20;99.90;;;;;;5066668;28;20081;-87
2021/12/26 04:29:10;;;;;;;4.32;1.17;;;-3.90;99.90;;;;;;5066297;28;20518;-87
2021/12/26 04:31:37;;;;;;;1.27;0.93;;;-6.20;99.90;;;;;;5080706;28;20105;-87
2021/12/26 04:34:03;;;;;;;6.25;1.55;;;-6.10;99.90;;;;;;5083504;28;20054;-87
2021/12/26 04:36:29;;;;;;;4.60;1.55;;;-4.20;99.90;;;;;;5047908;28;20086;-86
2021/12/26 04:38:55;;;;;;;2.70;1.50;;;-6.10;99.90;;;;;;5082894;28;20075;-87
2021/12/26 04:41:21;;;;;;;2.85;1.10;;;-6.20;99.90;;;;;;5065515;28;20080;-87
2021/12/26 04:43:46;;;;;;;2.92;1.00;;;-6.20;99.90;;;;;;5064865;28;20510;-86
2021/12/26 04:46:13;;;;;;;1.67;1.05;;;-4.20;99.90;;;;;;5053017;28;20040;-87
2021/12/26 04:48:42;;;;;;;1.52;1.00;;;-6.20;99.90;;;;;;5084805;28;20040;-87
2021/12/26 04:51:09;;;;;;;1.98;0.90;;;-4.70;99.90;;;;;;5071068;28;20043;-88
2021/12/26 04:53:37;;;;;;;3.17;0.98;;;-6.20;99.90;;;;;;5068263;28;20046;-88
2021/12/26 04:56:04;;;;;;;4.63;1.00;;;-6.20;99.90;;;;;;5070042;28;20047;-88
2021/12/26 04:58:29;;;;;;;1.52;0.82;;;-6.20;99.90;;;;;;5068915;28;20132;-88
2021/12/26 05:00:55;;;;;;;3.10;1.27;;;-6.20;99.90;;;;;;5068749;28;20131;-88
2021/12/26 05:03:21;;;;;;;3.92;1.10;;;-6.20;99.90;;;;;;5069461;28;20131;-88
2021/12/26 05:05:47;;;;;;;2.03;1.02;;;-6.20;99.90;;;;;;5067749;28;20032;-87
2021/12/26 05:08:13;;;;;;;2.65;0.98;;;-6.20;99.90;;;;;;5070217;28;20066;-88
2021/12/26 05:10:40;;;;;;;2.45;1.00;;;-6.20;99.90;;;;;;5034541;28;20113;-87
2021/12/26 05:13:06;;;;;;;1.40;0.70;;;-6.20;99.90;;;;;;5069847;28;20044;-87
2021/12/26 05:15:33;;;;;;;2.10;0.85;;;-6.10;99.90;;;;;;5068665;28;20120;-88
2021/12/26 05:17:59;;;;;;;2.17;1.02;;;-6.20;99.90;;;;;;5085635;28;20047;-88
2021/12/26 05:20:27;;;;;;;5.20;0.95;;;-6.10;99.90;;;;;;5052730;28;20047;-87
2021/12/26 05:22:55;;;;;;;1.27;0.93;;;-6.20;99.90;;;;;;5068161;28;20201;-88
2021/12/26 05:25:22;;;;;;;1.73;0.90;;;-6.30;99.90;;;;;;5053294;28;20083;-88
2021/12/26 05:27:50;;;;;;;6.00;1.30;;;-6.10;99.90;;;;;;5067094;28;20040;-88
2021/12/26 05:30:18;;;;;;;4.07;1.35;;;-6.00;99.90;;;;;;5053153;28;20128;-88
2021/12/26 05:32:44;;;;;;;1.67;1.00;;;-6.00;98.20;;;;;;5067713;28;20036;-88
2021/12/26 05:35:11;;;;;;;2.05;1.00;;;-6.00;98.00;;;;;;5051631;28;20095;-89
2021/12/26 05:37:38;;;;;;;2.65;1.13;;;-6.00;97.90;;;;;;5068986;28;20519;-88
2021/12/26 05:40:05;;;;;;;3.08;1.25;;;-5.90;98.30;;;;;;5050382;28;20048;-88
2021/12/26 05:42:32;;;;;;;3.97;1.10;;;-5.90;97.20;;;;;;5052685;28;20036;-88
2021/12/26 05:44:58;;;;;;;2.05;1.15;;;-6.20;97.00;;;;;;5034362;28;20127;-88
2021/12/26 05:47:24;;;;;;;2.03;1.08;;;-3.60;97.10;;;;;;5052851;28;20226;-87
2021/12/26 05:49:51;;;;;;;4.65;1.45;;;-6.00;97.00;;;;;;5067824;28;20040;-87
2021/12/26 05:52:18;;;;;;;1.17;0.90;;;-5.90;97.60;;;;;;5051530;28;20039;-88
2021/12/26 05:54:45;;;;;;;1.15;0.82;;;-3.60;97.10;;;;;;5068595;28;20136;-88
2021/12/26 05:57:11;;;;;;;1.63;0.98;;;-5.80;96.50;;;;;;5067229;28;20130;-89
2021/12/26 05:59:37;;;;;;;2.78;1.13;;;-5.80;96.00;;;;;;5069845;28;20558;-88
2021/12/26 06:02:03;;;;;;;1.70;1.10;;;-5.80;96.60;;;;;;5033784;28;20075;-88
2021/12/26 06:04:29;;;;;;;1.80;1.00;;;-6.30;96.40;;;;;;5070308;28;20036;-88
2021/12/26 06:06:55;;;;;;;3.20;1.05;;;-5.90;96.00;;;;;;5035015;28;20036;-88
2021/12/26 06:09:20;;;;;;;1.20;0.73;;;-5.90;97.10;;;;;;5070537;28;20044;-88
2021/12/26 06:11:46;;;;;;;1.30;0.60;;;-6.00;95.70;;;;;;5053334;28;20067;-88
2021/12/26 06:14:12;;;;;;;1.90;0.93;;;-6.00;97.50;;;;;;5069960;28;20040;-88
2021/12/26 06:16:38;;;;;;;3.33;1.13;;;-7.00;96.80;;;;;;5055328;28;20042;-88
2021/12/26 06:19:03;;;;;;;1.42;0.90;;;-6.00;96.90;;;;;;5049819;28;20054;-88
2021/12/26 06:21:29;;;;;;;2.33;1.25;;;-6.00;97.90;;;;;;5087367;28;20035;-87
2021/12/26 06:23:55;;;;;;;2.75;1.23;;;-6.10;97.60;;;;;;5084213;28;20047;-88
2021/12/26 06:26:23;;;;;;;1.42;0.90;;;-4.70;98.30;;;;;;5085029;28;20040;-88
2021/12/26 06:28:49;;;;;;;1.75;1.02;;;-6.10;97.80;;;;;;5067934;28;20036;-88
2021/12/26 06:31:15;;;;;;;2.83;1.48;;;-6.10;97.40;;;;;;5083451;28;20036;-88
2021/12/26 06:33:41;;;;;;;1.45;0.95;;;-3.80;98.70;;;;;;5051620;28;20048;-89
2021/12/26 06:36:09;;;;;;;4.53;1.42;;;-6.10;97.80;;;;;;5083477;28;20044;-89
2021/12/26 06:38:36;;;;;;;2.90;1.10;;;-6.10;97.20;;;;;;5069110;28;20101;-88
2021/12/26 06:41:03;;;;;;;3.17;1.17;;;-6.10;97.30;;;;;;5033737;28;20079;-89
2021/12/26 06:43:29;;;;;;;3.47;1.20;;;-6.10;97.70;;;;;;5035105;28;20088;-88
2021/12/26 06:45:55;;;;;;;2.33;1.15;;;-6.10;98.00;;;;;;5050703;28;20075;-88
2021/12/26 06:48:21;;;;;;;1.80;1.08;;;-6.10;98.00;;;;;;5066629;28;20063;-89
2021/12/26 06:50:48;;;;;;;2.05;1.17;;;-6.20;98.60;;;;;;5068455;28;20102;-89
2021/12/26 06:53:14;;;;;;;1.83;1.17;;;-6.00;97.90;;;;;;5049104;28;20039;-88
2021/12/26 06:55:40;;;;;;;2.85;1.55;;;-6.10;97.50;;;;;;5051240;28;20499;-90
2021/12/26 06:58:07;;;;;;;4.53;1.50;;;-6.20;97.70;;;;;;5082557;28;20040;-89
2021/12/26 07:00:33;;;;;;;4.28;1.30;;;-6.00;97.70;;;;;;5067907;28;20077;-89
2021/12/26 07:02:59;;;;;;;1.55;1.23;;;-6.10;98.70;;;;;;5066776;28;20040;-88
2021/12/26 07:05:24;;;;;;;3.88;1.55;;;-4.30;99.50;;;;;;5066646;28;20539;-89
2021/12/26 07:07:50;;;;;;;1.65;1.10;;;-6.20;98.50;;;;;;5034454;28;20036;-91
2021/12/26 07:10:17;;;;;;;3.75;1.20;;;-5.00;98.10;;;;;;5066918;28;20388;-90
2021/12/26 07:12:44;;;;;;;1.70;0.95;;;-6.20;98.40;;;;;;5036257;28;20036;-94
2021/12/26 07:15:11;;;;;;;2.72;1.60;;;-4.80;98.80;;;;;;5066759;28;20041;-89
2021/12/26 07:17:37;;;;;;;3.22;1.40;;;-6.30;98.60;;;;;;5054448;28;20122;-90
2021/12/26 07:20:04;;;;;;;3.30;1.50;;;-4.20;98.30;;;;;;5034548;28;20050;-93
2021/12/26 07:22:30;;;;;;;2.47;1.27;;;-6.20;98.60;;;;;;5051111;28;20229;-94
2021/12/26 07:24:56;;;;;;;4.05;1.90;;;-6.30;98.90;;;;;;5035466;28;20075;-92
2021/12/26 07:27:22;;;;;;;3.17;1.45;;;-6.30;98.40;;;;;;5050945;28;20032;-95
2021/12/26 07:29:49;;;;;;;2.35;1.42;;;-6.30;97.80;;;;;;5052482;28;20476;-93
2021/12/26 07:32:14;;;;;;;3.85;1.83;;;-6.50;98.30;;;;;;5033868;28;20044;-93
2021/12/26 07:34:41;;;;;;;2.13;1.25;;;-7.60;97.90;;;;;;5051631;28;20131;-91
2021/12/26 07:37:07;;;;;;;2.08;1.20;;;-5.50;99.40;;;;;;5034554;28;20040;-93
2021/12/26 07:39:33;;;;;;;2.70;1.48;;;-6.30;97.80;;;;;;5052058;28;20134;-95
2021/12/26 07:41:59;;;;;;;2.22;1.23;;;-6.30;98.10;;;;;;5085642;28;20040;-94
2021/12/26 07:44:25;;;;;;;4.25;1.50;;;-6.60;97.40;;;;;;5085120;28;20494;-92
2021/12/26 07:46:51;;;;;;;2.80;1.65;;;-6.40;98.00;;;;;;5052516;28;20108;-91
2021/12/26 07:49:18;;;;;;;1.90;1.50;;;-6.40;98.50;;;;;;5050140;28;20644;-94
2021/12/26 07:51:45;;;;;;;2.53;1.67;;;-6.30;98.50;;;;;;5052999;28;20071;-91
2021/12/26 07:54:13;;;;;;;2.03;1.50;;;-6.30;97.90;;;;;;5051217;28;20043;-93
2021/12/26 07:56:39;;;;;;;4.18;1.50;;;-6.30;97.70;;;;;;5051359;28;20063;-92
2021/12/26 07:59:05;;;;;;;4.35;1.60;;;-6.30;97.70;;;;;;5034951;28;20047;-91
2021/12/26 08:01:31;;;;;;;1.48;1.35;;;-6.30;97.80;;;;;;5034419;28;20044;-93
2021/12/26 08:04:00;;;;;;;3.80;1.48;;;-4.90;98.10;;;;;;5059385;28;20044;-93
2021/12/26 08:06:27;;;;;;;6.03;1.95;;;-6.20;97.40;;;;;;5060160;28;20038;-93
2021/12/26 08:08:52;;;;;;;2.53;1.38;;;-6.20;97.40;;;;;;5075479;28;20143;-94
2021/12/26 08:11:18;;;;;;;4.65;1.98;;;-6.40;97.30;;;;;;5055802;28;20544;-88
2021/12/26 08:13:45;;;;;;;7.95;1.77;;;-6.20;97.00;;;;;;5056607;28;20471;-93
2021/12/26 08:16:10;;;;;;;4.28;1.60;;;-6.20;97.40;;;;;;5068770;28;20040;-93
2021/12/26 08:18:36;;;;;;;3.13;2.30;;;-5.40;97.90;;;;;;5049618;28;20223;-94
2021/12/26 08:21:02;;;;;;;2.53;1.52;;;-6.30;97.40;;;;;;5068892;28;20036;-93
2021/12/26 08:23:28;;;;;;;3.80;2.25;;;-6.10;97.10;;;;;;5049925;28;20530;-90
2021/12/26 08:25:56;;;;;;;2.13;1.40;;;-4.80;97.70;;;;;;5068164;28;20495;-96
2021/12/26 08:28:22;;;;;;;4.28;2.05;;;-6.10;96.70;;;;;;5049165;28;20199;-94
2021/12/26 08:30:48;;;;;;;6.90;2.17;;;-6.00;97.80;;;;;;5069060;28;20036;-94
2021/12/26 08:33:14;;;;;;;3.35;2.00;;;-6.00;97.20;;;;;;5034536;28;20503;-93
2021/12/26 08:35:46;;;;;;;2.95;1.80;;;-6.00;97.10;;;;;;5037601;28;20051;-95
2021/12/26 08:38:15;;;;;;;6.00;1.88;;;-6.00;97.50;;;;;;5054668;28;20044;-95
2021/12/26 08:40:42;;;;;;;2.53;1.65;;;-6.00;96.60;;;;;;5064946;28;20044;-90
2021/12/26 08:43:08;;;;;;;2.83;2.00;;;-5.90;97.00;;;;;;5067232;28;20066;-89
2021/12/26 08:45:34;;;;;;;3.88;2.28;;;-5.90;97.00;;;;;;5047856;28;20453;-90
2021/12/26 08:48:00;;;;;;;8.00;1.60;;;-5.80;97.90;;;;;;5066449;28;20047;-89
2021/12/26 08:50:27;;;;;;;3.13;1.95;;;-5.80;97.70;;;;;;5082681;28;20484;-89
2021/12/26 08:52:54;;;;;;;3.25;1.80;;;-5.80;97.80;;;;;;5048865;28;20047;-90
2021/12/26 08:55:23;;;;;;;3.78;2.33;;;-5.70;98.50;;;;;;5083003;28;20579;-89
2021/12/26 08:57:50;;;;;;;5.75;2.70;;;-5.70;98.30;;;;;;5048523;28;20044;-90
2021/12/26 09:00:17;;;;;;;4.07;2.05;;;-5.70;96.30;;;;;;5067332;28;20499;-91
2021/12/26 09:02:43;;;;;;;4.53;2.42;;;-5.60;96.80;;;;;;5065827;28;20044;-90
2021/12/26 09:05:10;;;;;;;5.82;2.13;;;-3.50;97.90;;;;;;5050007;28;20048;-90
2021/12/26 09:07:36;;;;;;;2.63;1.80;;;-6.90;96.60;;;;;;5049701;28;20044;-95
2021/12/26 09:10:03;;;;;;;3.55;1.80;;;-5.50;95.70;;;;;;5082141;28;20048;-88
2021/12/26 09:12:29;;;;;;;3.47;1.92;;;-5.40;96.00;;;;;;5050479;28;20052;-91
2021/12/26 09:14:55;;;;;;;6.43;2.55;;;-5.40;96.40;;;;;;5048556;28;20046;-87
2021/12/26 09:17:21;;;;;;;3.05;1.77;;;-5.20;96.00;;;;;;5034456;28;20479;-89
2021/12/26 09:19:47;;;;;;;5.30;1.80;;;-3.10;95.50;;;;;;5064111;28;20054;-88
2021/12/26 09:22:15;;;;;;;2.55;1.25;;;-3.10;95.40;;;;;;5066080;28;20044;-85
2021/12/26 09:24:42;;;;;;;3.35;1.80;;;-5.10;94.40;;;;;;5081630;28;20097;-88
2021/12/26 09:27:08;;;;;;;3.58;1.88;;;-4.90;95.10;;;;;;5048780;28;20070;-88
2021/12/26 09:29:34;;;;;;;2.28;1.23;;;-4.80;94.30;;;;;;5083838;28;20079;-83
2021/12/26 09:32:02;;;;;;;2.20;1.58;;;-4.70;94.40;;;;;;5066973;28;20039;-89
2021/12/26 09:34:30;;;;;;;3.50;2.00;;;-4.70;92.50;;;;;;5073887;28;20459;-88
2021/12/26 09:36:56;;;;;;;4.20;2.00;;;-4.60;92.60;;;;;;5073786;28;20127;-90
2021/12/26 09:39:23;;;;;;;2.90;1.27;;;-2.60;92.60;;;;;;5060894;28;20048;-89
2021/12/26 09:41:52;;;;;;;3.50;1.75;;;-4.40;94.20;;;;;;5061081;28;20495;-87
2021/12/26 09:44:22;;;;;;;16.02;1.60;;;-4.30;94.20;;;;;;5077213;28;20184;-88
2021/12/26 09:46:48;;;;;;;7.30;1.52;;;-4.20;94.70;;;;;;5084487;28;20051;-87
2021/12/26 09:49:14;;;;;;;5.15;1.90;;;-4.30;94.30;;;;;;5082101;28;20044;-85
2021/12/26 09:51:40;;;;;;;4.18;1.52;;;-4.20;94.90;;;;;;5093837;28;20044;-88
2021/12/26 09:54:08;;;;;;;4.60;1.73;;;-2.90;94.00;;;;;;5059192;28;20032;-90
2021/12/26 09:56:34;;;;;;;2.78;0.98;;;-4.30;94.20;;;;;;5074727;28;20514;-89
2021/12/26 09:59:01;;;;;;;3.08;1.45;;;-3.90;94.60;;;;;;5091887;28;20055;-90
2021/12/26 10:01:40;;;;;;;3.88;2.03;;;-3.90;94.10;;;;;;5072490;28;20069;-89
2021/12/26 10:04:19;;;;;;;5.40;1.73;;;-3.80;93.80;;;;;;5088751;28;20101;-88
2021/12/26 10:06:46;;;;;;;2.75;1.52;;;-2.60;94.90;;;;;;5070438;28;20224;-85
2021/12/26 10:09:12;;;;;;;3.38;1.77;;;-3.60;95.00;;;;;;5071503;28;20040;-86
2021/12/26 10:11:49;;;;;;;3.58;1.55;;;-1.70;96.40;;;;;;5067017;28;20048;-86
2021/12/26 10:14:24;;;;;;;5.68;1.50;;;-1.20;94.90;;;;;;5084992;28;20055;-88
2021/12/26 10:16:57;;;;;;;5.28;2.17;;;-3.40;92.40;;;;;;5069294;28;20075;-88
2021/12/26 10:19:23;;;;;;;;;;;-3.20;95.10;;;;;;5086051;28;20048;-89
2021/12/26 10:21:53;;;;;;;6.85;2.20;;;-3.20;88.30;;;;;;5068805;28;19994;-84
2021/12/26 10:24:22;;;;;;;3.50;2.13;;;-3.10;91.90;;;;;;5083473;28;20491;-91
2021/12/26 10:27:08;;;;;;;3.00;1.73;;;-3.00;93.30;;;;;;5068730;28;20518;-88
2021/12/26 10:29:46;;;;;;;1.92;1.13;;;-3.00;92.90;;;;;;5067874;28;20051;-85
2021/12/26 10:32:18;;;;;;;4.00;1.45;;;-2.90;92.70;;;;;;5083806;28;20048;-89
2021/12/26 10:34:54;;;;;;;2.22;1.50;;;-2.80;92.50;;;;;;5068344;28;20048;-89
2021/12/26 10:37:36;;;;;;;3.00;1.60;;;-2.70;92.30;;;;;;5066313;28;20032;-89
2021/12/26 10:40:37;;;;;;;3.28;1.90;;;-2.70;92.00;;;;;;5067745;28;20518;-89
2021/12/26 10:43:02;;;;;;;2.08;1.25;;;-0.70;91.10;;;;;;5014485;28;20056;-90
2021/12/26 10:45:34;;;;;;;2.90;1.58;;;-0.40;93.00;;;;;;5049623;28;20351;-89
2021/12/26 10:48:04;;;;;;;2.47;1.52;;;-2.40;91.60;;;;;;5067860;28;20040;-89
2021/12/26 10:50:34;;;;;;;1.98;1.33;;;-2.30;91.00;;;;;;5049973;28;20040;-89
2021/12/26 10:53:06;;;;;;;3.50;1.83;;;-1.80;93.60;;;;;;5066889;28;20040;-88
2021/12/26 10:55:43;;;;;;;5.57;1.98;;;-2.10;91.70;;;;;;5066780;28;20036;-88
2021/12/26 10:58:15;;;;;;;3.97;1.73;;;-2.10;91.40;;;;;;5082830;28;20051;-89
2021/12/26 11:00:44;;;;;;;4.80;1.92;;;-1.90;93.20;;;;;;5084139;28;20048;-89
2021/12/26 11:03:13;;;;;;;2.80;1.73;;;-2.00;92.70;;;;;;5065901;28;20043;-89
2021/12/26 11:05:44;;;;;;;3.88;1.75;;;-0.60;92.80;;;;;;5085372;28;20044;-88
2021/12/26 11:08:12;;;;;;;3.13;1.50;;;0.30;91.50;;;;;;5067573;28;20048;-88
2021/12/26 11:10:48;;;;;;;2.50;1.58;;;-1.90;91.30;;;;;;5083464;28;20052;-88
2021/12/26 11:13:21;;;;;;;2.53;1.55;;;-1.80;92.50;;;;;;5067505;28;20044;-88
2021/12/26 11:15:48;;;;;;;6.78;2.53;;;-1.70;92.70;;;;;;5065797;28;20047;-88
2021/12/26 11:18:16;;;;;;;4.57;2.03;;;-1.60;92.30;;;;;;5066968;28;20490;-88
2021/12/26 11:20:49;;;;;;;4.35;1.90;;;-1.20;91.60;;;;;;5066400;28;20066;-87
2021/12/26 11:23:17;;;;;;;2.00;1.38;;;0.60;92.90;;;;;;5066917;28;20052;-87
2021/12/26 11:25:52;;;;;;;2.75;1.50;;;-1.40;90.80;;;;;;5066514;28;20052;-87
2021/12/26 11:28:26;;;;;;;5.07;1.60;;;-1.40;92.10;;;;;;5065681;28;20431;-86
2021/12/26 11:30:54;;;;;;;2.50;1.50;;;0.20;92.00;;;;;;5066968;28;20082;-89
2021/12/26 11:33:21;;;;;;;4.00;1.70;;;0.90;90.40;;;;;;5083735;28;20055;-86
2021/12/26 11:35:48;;;;;;;5.68;2.08;;;-0.80;88.50;;;;;;5083008;28;20036;-86
2021/12/26 11:38:19;;;;;;;3.42;1.67;;;-1.20;90.50;;;;;;5066207;28;20093;-85
2021/12/26 11:40:46;;;;;;;4.13;1.73;;;-1.20;91.40;;;;;;5082103;28;20130;-87
2021/12/26 11:43:25;;;;;;;5.43;2.05;;;-0.30;91.60;;;;;;5067554;28;20043;-87
2021/12/26 11:46:13;;;;;;;6.47;1.77;;;0.30;90.30;;;;;;5084459;28;20055;-80
2021/12/26 11:49:14;;;;;;;2.85;1.50;;;-1.00;90.50;;;;;;5067114;28;20399;-81
2021/12/26 11:51:59;;;;;;;2.80;1.33;;;-1.00;84.90;;;;;;5084047;28;20056;-86
2021/12/26 11:54:43;;;;;;;5.07;1.70;;;-0.90;87.50;;;;;;5083624;28;20056;-84
2021/12/26 11:57:36;;;;;;;2.45;1.55;;;-0.90;88.80;;;;;;5085743;28;20548;-86
2021/12/26 12:00:12;;;;;;;3.78;2.10;;;-0.90;88.00;;;;;;5085791;28;20093;-87
2021/12/26 12:02:42;;;;;;;4.80;1.92;;;-0.70;90.20;;;;;;5082975;28;20063;-87
2021/12/26 12:05:14;;;;;;;3.45;1.63;;;1.10;88.20;;;;;;5083027;28;20051;-85
2021/12/26 12:07:44;;;;;;;3.63;1.88;;;-0.70;90.30;;;;;;5081346;28;20093;-86
2021/12/26 12:10:56;;;;;;;5.28;1.52;;;-0.60;90.30;;;;;;5065090;28;20054;-80
2021/12/26 12:13:44;;;;;;;3.83;1.90;;;-0.70;84.40;;;;;;5084352;28;20115;-83
2021/12/26 12:16:33;;;;;;;2.65;1.50;;;-0.60;87.40;;;;;;5063022;28;20040;-82
2021/12/26 12:19:04;;;;;;;4.97;1.70;;;1.10;86.40;;;;;;5081570;28;20422;-81
2021/12/26 12:21:44;;;;;;;4.15;1.70;;;-0.30;88.10;;;;;;5082226;28;20043;-83
2021/12/26 12:24:18;;;;;;;4.55;1.70;;;-0.30;87.90;;;;;;5081206;28;20442;-86
2021/12/26 12:26:59;;;;;;;3.80;1.85;;;-0.20;88.80;;;;;;5066386;28;20052;-82
2021/12/26 12:29:33;;;;;;;3.88;1.85;;;1.40;89.70;;;;;;5064634;28;20090;-86
2021/12/26 12:32:08;;;;;;;3.15;1.90;;;-0.10;89.10;;;;;;5064718;28;20138;-87
2021/12/26 12:35:01;;;;;;;3.70;1.75;;;1.30;90.10;;;;;;5065528;28;20048;-87
2021/12/26 12:37:45;;;;;;;3.58;1.75;;;-0.20;86.90;;;;;;5064511;28;20054;-81
2021/12/26 12:40:25;;;;;;;2.88;1.45;;;2.00;88.00;;;;;;5062707;28;20051;-84
2021/12/26 12:43:18;;;;;;;3.20;1.55;;;-0.20;84.90;;;;;;5081807;28;20040;-81
2021/12/26 12:48:33;;;;;;;5.75;2.30;;;-0.20;84.50;;;;;;5082473;28;20468;-81
2021/12/26 12:51:15;;;;;;;5.65;1.80;;;0.50;86.80;;;;;;5082737;28;20048;-84
2021/12/26 12:53:55;;;;;;;1.95;1.30;;;-0.10;87.00;;;;;;5080281;28;20063;-84
2021/12/26 12:56:30;;;;;;;5.88;2.00;;;1.70;88.10;;;;;;5048221;28;20056;-83
2021/12/26 12:59:18;;;;;;;4.65;1.77;;;-0.10;85.70;;;;;;5080766;28;20059;-85
2021/12/26 13:01:47;;;;;;;4.03;1.60;;;1.10;84.70;;;;;;5065604;28;20051;-84